LIRA/CIA METAR and TAF weather

Enter ICAO airport designator
Station Type Date Time Source
LIRA METAR 2020/09/21 04:50 UTC NOAA

LIRA 210450Z AUTO 11004KT 070V150 9999 NCD 22/18 Q1014


Station Type Date Time Source
LIRA Decoded METAR 2020/09/21 04:50 UTC NOAA

Roma / Ciampino, Italy (LIRA) 41-47N 012-35E 105M
Sep 21, 2020 - 12:50 AM EDT / 2020.09.21 0450 UTC
Wind: from the ESE (110 degrees) at 5 MPH (4 KT) (direction variable):0
Visibility: greater than 7 mile(s):0
Temperature: 71 F (22 C)
Dew Point: 64 F (18 C)
Relative Humidity: 78%
Pressure (altimeter): 29.94 in. Hg (1014 hPa)
ob: LIRA 210450Z AUTO 11004KT 070V150 9999 NCD 22/18 Q1014
cycle: 5

Station Type Date Time Source
LIRA TAF 2020/09/20 18:22 UTC NOAA

TAF LIRA 201700Z 2018/2118 VRB05KT 9999 SCT035
TEMPO 2105/2112 TSRA
BECMG 2108/2110 24010KT

Example: see airport list